createdAt,value
2023-04-17T00:00:38.391Z,30.09
2023-04-17T00:01:38.354Z,29.31
2023-04-17T00:02:38.511Z,28.27
2023-04-17T00:03:38.528Z,28.73
2023-04-17T00:04:38.575Z,28.65
2023-04-17T00:05:38.348Z,28.68
2023-04-17T00:06:38.365Z,27.71
2023-04-17T00:07:38.384Z,29.48
2023-04-17T00:08:38.354Z,28.88
2023-04-17T00:09:38.368Z,28.09
2023-04-17T00:10:38.369Z,28.40
2023-04-17T00:11:38.342Z,28.06
2023-04-17T00:12:38.347Z,28.81
2023-04-17T00:13:38.347Z,28.00
2023-04-17T00:14:38.333Z,27.02
2023-04-17T00:15:38.354Z,27.55
2023-04-17T00:16:38.388Z,26.91
2023-04-17T00:17:38.343Z,28.45
2023-04-17T00:18:38.298Z,28.91
2023-04-17T00:19:38.297Z,28.15
2023-04-17T00:20:38.332Z,30.19
2023-04-17T00:21:38.318Z,26.63
2023-04-17T00:22:38.300Z,27.15
2023-04-17T00:23:38.319Z,26.51
2023-04-17T00:24:38.271Z,27.17
2023-04-17T00:25:38.315Z,27.37
2023-04-17T00:26:38.338Z,28.35
2023-04-17T00:27:38.299Z,26.15
2023-04-17T00:28:38.286Z,25.71
2023-04-17T00:29:38.272Z,27.83
2023-04-17T00:30:38.322Z,27.71
2023-04-17T00:31:38.318Z,25.43
2023-04-17T00:32:38.297Z,28.44
2023-04-17T00:33:38.275Z,26.69
2023-04-17T00:34:38.318Z,28.67
2023-04-17T00:35:38.293Z,27.43
2023-04-17T00:36:38.278Z,28.55
2023-04-17T00:37:38.276Z,27.91
2023-04-17T00:38:38.270Z,27.21
2023-04-17T00:39:38.249Z,30.39
2023-04-17T00:40:38.290Z,28.20
2023-04-17T00:41:38.267Z,27.62
2023-04-17T00:42:38.306Z,27.68
2023-04-17T00:43:38.315Z,29.51
2023-04-17T00:44:38.305Z,25.67
2023-04-17T00:45:38.333Z,30.52
2023-04-17T00:46:38.298Z,26.91
2023-04-17T00:47:38.422Z,27.45
2023-04-17T00:48:38.309Z,27.83
2023-04-17T00:49:38.321Z,29.22
2023-04-17T00:50:38.329Z,27.84
2023-04-17T00:51:38.324Z,29.18
2023-04-17T00:52:38.332Z,26.85
2023-04-17T00:53:38.318Z,28.53
2023-04-17T00:54:38.315Z,27.37
2023-04-17T00:55:38.330Z,28.49
2023-04-17T00:56:38.341Z,28.54
2023-04-17T00:57:38.398Z,26.83
2023-04-17T00:58:38.352Z,28.14
2023-04-17T00:59:38.351Z,30.74
2023-04-17T01:00:38.325Z,30.57
2023-04-17T01:01:38.444Z,29.90
2023-04-17T01:02:38.459Z,29.19
2023-04-17T01:03:38.560Z,28.81
2023-04-17T01:04:38.344Z,27.75
2023-04-17T01:05:38.456Z,26.65
2023-04-17T01:06:38.402Z,29.21
2023-04-17T01:07:38.365Z,29.94
2023-04-17T01:08:38.402Z,29.38
2023-04-17T01:09:38.369Z,28.80
2023-04-17T01:10:38.390Z,27.91
2023-04-17T01:11:38.390Z,30.56
2023-04-17T01:12:38.397Z,25.83
2023-04-17T01:13:38.379Z,28.92
2023-04-17T01:14:38.382Z,29.01
2023-04-17T01:15:38.401Z,26.17
2023-04-17T01:16:38.419Z,27.10
2023-04-17T01:17:38.451Z,26.98
2023-04-17T01:18:38.408Z,27.93
2023-04-17T01:19:38.420Z,28.36
2023-04-17T01:20:38.419Z,27.21
2023-04-17T01:21:38.415Z,27.27
2023-04-17T01:22:38.414Z,28.62
2023-04-17T01:23:38.466Z,27.26
2023-04-17T01:24:38.462Z,26.82
2023-04-17T01:25:38.524Z,26.30
2023-04-17T01:26:38.469Z,27.78
2023-04-17T01:27:38.534Z,28.97
2023-04-17T01:28:38.539Z,27.71
2023-04-17T01:29:38.528Z,30.06
2023-04-17T01:30:38.583Z,30.06
2023-04-17T01:31:38.535Z,28.35
2023-04-17T01:32:38.594Z,29.63
2023-04-17T01:33:38.559Z,25.59
2023-04-17T01:34:38.551Z,28.47
2023-04-17T01:35:38.585Z,28.10
2023-04-17T01:36:38.603Z,26.25
2023-04-17T01:37:38.633Z,28.09
2023-04-17T01:38:38.600Z,27.82
2023-04-17T01:39:38.608Z,27.56
2023-04-17T01:40:38.657Z,26.78
2023-04-17T01:41:38.628Z,27.40
2023-04-17T01:42:38.640Z,27.08
2023-04-17T01:43:38.659Z,25.00
2023-04-17T01:44:38.658Z,26.88
2023-04-17T01:45:38.653Z,26.84
2023-04-17T01:46:38.804Z,25.13
2023-04-17T01:47:38.709Z,27.20
2023-04-17T01:48:38.694Z,30.37
2023-04-17T01:49:38.693Z,26.82
2023-04-17T01:50:38.666Z,25.86
2023-04-17T01:51:38.673Z,29.36
2023-04-17T01:52:38.685Z,28.79
2023-04-17T01:53:38.687Z,26.91
2023-04-17T01:54:38.692Z,28.10
2023-04-17T01:55:38.748Z,28.54
2023-04-17T01:56:38.737Z,28.32
2023-04-17T01:57:38.732Z,26.96
2023-04-17T01:58:38.754Z,28.96
2023-04-17T01:59:38.748Z,28.00
2023-04-17T02:00:38.759Z,26.98
2023-04-17T02:01:38.805Z,27.93
2023-04-17T02:02:38.915Z,26.28
2023-04-17T02:03:38.932Z,28.20
2023-04-17T02:04:38.893Z,26.94
2023-04-17T02:05:38.817Z,26.25
2023-04-17T02:06:38.817Z,28.95
2023-04-17T02:07:38.833Z,27.88
2023-04-17T02:08:38.817Z,28.89
2023-04-17T02:09:38.844Z,27.40
2023-04-17T02:10:38.825Z,28.82
2023-04-17T02:11:38.834Z,26.66
2023-04-17T02:12:38.828Z,26.60
2023-04-17T02:13:38.863Z,27.22
2023-04-17T02:14:38.857Z,29.41
2023-04-17T02:15:38.886Z,27.90
2023-04-17T02:16:38.882Z,28.10
2023-04-17T02:17:38.913Z,29.99
2023-04-17T02:18:38.882Z,29.44
2023-04-17T02:19:38.880Z,28.60
2023-04-17T02:20:38.866Z,27.80
2023-04-17T02:21:38.896Z,29.74
2023-04-17T02:22:38.925Z,30.59
2023-04-17T02:23:38.889Z,30.53
2023-04-17T02:24:38.883Z,29.92
2023-04-17T02:25:38.905Z,29.60
2023-04-17T02:26:38.951Z,29.13
2023-04-17T02:27:38.974Z,30.55
2023-04-17T02:28:38.959Z,28.73
2023-04-17T02:29:38.952Z,30.34
2023-04-17T02:30:38.967Z,30.17
2023-04-17T02:31:39.034Z,28.59
2023-04-17T02:32:39.024Z,29.50
2023-04-17T02:33:38.997Z,30.96
2023-04-17T02:34:39.019Z,29.59
2023-04-17T02:35:39.032Z,28.05
2023-04-17T02:36:39.050Z,31.28
2023-04-17T02:37:39.031Z,27.60
2023-04-17T02:38:39.041Z,29.17
2023-04-17T02:39:39.036Z,29.64
2023-04-17T02:40:39.078Z,28.92
2023-04-17T02:41:39.079Z,30.54
2023-04-17T02:42:39.115Z,30.93
2023-04-17T02:43:39.078Z,28.97
2023-04-17T02:44:39.117Z,29.56
2023-04-17T02:45:39.107Z,29.38
2023-04-17T02:46:39.159Z,28.80
2023-04-17T02:47:39.133Z,28.14
2023-04-17T02:48:39.160Z,29.49
2023-04-17T02:49:39.173Z,29.21
2023-04-17T02:50:39.171Z,28.66
2023-04-17T02:51:39.154Z,30.51
2023-04-17T02:52:39.189Z,31.06
2023-04-17T02:53:39.198Z,30.90
2023-04-17T02:54:39.203Z,28.39
2023-04-17T02:55:39.205Z,29.43
2023-04-17T02:56:39.228Z,29.62
2023-04-17T02:57:39.224Z,30.08
2023-04-17T02:58:39.248Z,31.22
2023-04-17T02:59:39.245Z,29.01
2023-04-17T03:00:39.299Z,27.63
2023-04-17T03:01:39.250Z,29.08
2023-04-17T03:02:39.392Z,30.86
2023-04-17T03:03:39.364Z,27.69
2023-04-17T03:04:39.305Z,29.95
2023-04-17T03:05:39.314Z,28.36
2023-04-17T03:06:39.281Z,28.11
2023-04-17T03:07:39.306Z,27.91
2023-04-17T03:08:39.318Z,31.19
2023-04-17T03:09:39.342Z,28.82
2023-04-17T03:10:39.348Z,28.54
2023-04-17T03:11:39.348Z,28.89
2023-04-17T03:12:39.357Z,27.08
2023-04-17T03:13:39.387Z,28.46
2023-04-17T03:14:39.363Z,30.26
2023-04-17T03:15:39.397Z,28.64
2023-04-17T03:16:39.421Z,29.44
2023-04-17T03:17:39.473Z,30.73
2023-04-17T03:18:39.428Z,29.78
2023-04-17T03:19:39.517Z,31.61
2023-04-17T03:20:39.468Z,30.76
2023-04-17T03:21:39.455Z,27.63
2023-04-17T03:22:39.469Z,29.81
2023-04-17T03:23:39.452Z,31.33
2023-04-17T03:24:39.487Z,31.93
2023-04-17T03:25:39.485Z,30.20
2023-04-17T03:26:39.527Z,32.43
2023-04-17T03:27:39.548Z,30.79
2023-04-17T03:28:39.541Z,30.12
2023-04-17T03:29:39.554Z,29.82
2023-04-17T03:30:39.551Z,30.32
2023-04-17T03:31:39.574Z,30.21
2023-04-17T03:32:39.585Z,30.98
2023-04-17T03:33:39.576Z,32.05
2023-04-17T03:34:39.571Z,32.55
2023-04-17T03:35:39.558Z,30.68
2023-04-17T03:36:39.611Z,30.85
2023-04-17T03:37:39.604Z,31.58
2023-04-17T03:38:39.570Z,30.21
2023-04-17T03:39:39.604Z,30.74
2023-04-17T03:40:39.625Z,30.03
2023-04-17T03:41:39.620Z,31.25
2023-04-17T03:42:39.663Z,29.37
2023-04-17T03:43:39.664Z,26.33
2023-04-17T03:44:39.647Z,29.92
2023-04-17T03:45:39.674Z,28.56
2023-04-17T03:46:39.656Z,31.74
2023-04-17T03:47:39.711Z,30.21
2023-04-17T03:48:39.667Z,29.55
2023-04-17T03:49:39.634Z,31.71
2023-04-17T03:50:39.685Z,30.13
2023-04-17T03:51:39.663Z,30.48
2023-04-17T03:52:39.674Z,29.18
2023-04-17T03:53:39.661Z,29.19
2023-04-17T03:54:39.717Z,30.42
2023-04-17T03:55:39.701Z,28.81
2023-04-17T03:56:39.711Z,30.85
2023-04-17T03:57:39.703Z,31.46
2023-04-17T03:58:39.748Z,26.15
2023-04-17T03:59:39.747Z,28.54
2023-04-17T04:00:39.744Z,27.83
2023-04-17T04:01:39.712Z,29.08
2023-04-17T04:02:39.916Z,27.82
2023-04-17T04:03:39.889Z,28.67
2023-04-17T04:04:39.856Z,28.96
2023-04-17T04:05:39.816Z,30.60
2023-04-17T04:06:39.796Z,28.36
2023-04-17T04:07:39.795Z,29.41
2023-04-17T04:08:39.799Z,29.32
2023-04-17T04:09:39.797Z,25.96
2023-04-17T04:10:39.849Z,29.22
2023-04-17T04:11:39.851Z,27.32
2023-04-17T04:12:39.859Z,28.18
2023-04-17T04:13:39.858Z,28.24
2023-04-17T04:14:41.879Z,29.86
2023-04-17T04:15:39.882Z,30.36
2023-04-17T04:16:39.852Z,25.78
2023-04-17T04:17:39.896Z,30.73
2023-04-17T04:18:39.845Z,28.80
2023-04-17T04:19:39.860Z,31.00
2023-04-17T04:20:39.911Z,29.14
2023-04-17T04:21:39.885Z,28.92
2023-04-17T04:22:39.888Z,30.39
2023-04-17T04:23:39.900Z,29.29
2023-04-17T04:24:39.888Z,29.58
2023-04-17T04:25:39.916Z,31.60
2023-04-17T04:26:39.876Z,29.65
2023-04-17T04:27:39.897Z,29.91
2023-04-17T04:28:39.928Z,27.67
2023-04-17T04:29:39.942Z,27.40
2023-04-17T04:30:39.944Z,31.32
2023-04-17T04:31:39.920Z,31.43
2023-04-17T04:32:39.925Z,27.51
2023-04-17T04:33:39.922Z,27.98
2023-04-17T04:34:39.953Z,28.74
2023-04-17T04:35:39.959Z,29.02
2023-04-17T04:36:39.985Z,27.43
2023-04-17T04:37:39.950Z,27.58
2023-04-17T04:38:40.004Z,30.30
2023-04-17T04:39:39.996Z,30.13
2023-04-17T04:40:39.993Z,28.51
2023-04-17T04:41:40.015Z,28.62
2023-04-17T04:42:39.991Z,27.06
2023-04-17T04:43:40.038Z,28.28
2023-04-17T04:44:40.959Z,28.51
2023-04-17T04:45:40.047Z,30.30
2023-04-17T04:46:40.083Z,29.61
2023-04-17T04:47:40.138Z,30.57
2023-04-17T04:48:42.151Z,31.22
2023-04-17T04:49:40.044Z,30.31
2023-04-17T04:50:40.055Z,28.41
2023-04-17T04:51:40.046Z,30.17
2023-04-17T04:52:40.008Z,28.18
2023-04-17T04:53:39.986Z,29.14
2023-04-17T04:54:40.003Z,28.92
2023-04-17T04:55:40.021Z,28.16
2023-04-17T04:56:40.011Z,29.30
2023-04-17T04:57:39.973Z,28.41
2023-04-17T04:58:39.978Z,30.60
2023-04-17T04:59:39.958Z,31.69
2023-04-17T05:00:40.071Z,34.88
2023-04-17T05:01:40.176Z,35.37
2023-04-17T05:02:40.113Z,38.25
2023-04-17T05:03:40.069Z,42.20
2023-04-17T05:04:40.189Z,44.06
2023-04-17T05:05:39.924Z,46.21
2023-04-17T05:06:39.922Z,49.34
2023-04-17T05:07:39.947Z,54.41
2023-04-17T05:08:39.929Z,58.46
2023-04-17T05:09:39.872Z,60.77
2023-04-17T05:10:39.917Z,64.21
2023-04-17T05:11:39.898Z,69.56
2023-04-17T05:12:39.882Z,74.53
2023-04-17T05:13:39.976Z,78.63
2023-04-17T05:14:39.893Z,82.18
2023-04-17T05:15:39.845Z,84.63
2023-04-17T05:16:39.916Z,90.00
2023-04-17T05:17:39.873Z,94.27
2023-04-17T05:18:39.814Z,98.96
2023-04-17T05:19:39.815Z,98.95
2023-04-17T05:20:39.827Z,105.35
2023-04-17T05:21:39.804Z,108.11
2023-04-17T05:22:39.780Z,108.97
2023-04-17T05:23:39.818Z,112.60
2023-04-17T05:24:39.789Z,115.61
2023-04-17T05:25:39.796Z,119.41
2023-04-17T05:26:39.776Z,122.63
2023-04-17T05:27:39.763Z,122.13
2023-04-17T05:28:39.767Z,129.48
2023-04-17T05:29:39.770Z,135.03
2023-04-17T05:30:39.763Z,135.19
2023-04-17T05:31:39.761Z,139.39
2023-04-17T05:32:39.817Z,142.78
2023-04-17T05:33:39.767Z,143.61
2023-04-17T05:34:39.719Z,147.58
2023-04-17T05:35:39.736Z,150.34
2023-04-17T05:36:39.717Z,158.01
2023-04-17T05:37:39.712Z,160.00
2023-04-17T05:38:39.708Z,162.11
2023-04-17T05:39:39.690Z,161.61
2023-04-17T05:40:39.673Z,167.83
2023-04-17T05:41:39.990Z,170.20
2023-04-17T05:42:39.684Z,178.20
2023-04-17T05:43:39.675Z,175.03
2023-04-17T05:44:39.652Z,180.47
2023-04-17T05:45:39.698Z,183.45
2023-04-17T05:46:39.981Z,187.32
2023-04-17T05:47:39.646Z,191.25
2023-04-17T05:48:39.621Z,199.46
2023-04-17T05:49:39.623Z,206.33
2023-04-17T05:50:39.600Z,224.45
2023-04-17T05:51:39.611Z,236.76
2023-04-17T05:52:39.794Z,235.16
2023-04-17T05:53:39.574Z,240.99
2023-04-17T05:54:39.557Z,249.22
2023-04-17T05:55:39.570Z,250.00
2023-04-17T05:56:39.976Z,250.00
2023-04-17T05:57:39.560Z,250.00
2023-04-17T05:58:39.592Z,250.00
2023-04-17T05:59:39.552Z,249.48
2023-04-17T06:00:39.514Z,250.00
2023-04-17T06:01:39.558Z,248.66
2023-04-17T06:02:39.595Z,249.46
2023-04-17T06:03:39.716Z,249.42
2023-04-17T06:04:39.796Z,250.00
2023-04-17T06:05:39.633Z,250.00
2023-04-17T06:06:39.983Z,249.55
2023-04-17T06:07:39.492Z,250.00
2023-04-17T06:08:39.485Z,248.57
2023-04-17T06:09:39.486Z,249.69
2023-04-17T06:10:39.471Z,249.60
2023-04-17T06:11:39.485Z,250.00
2023-04-17T06:12:39.449Z,247.26
2023-04-17T06:13:39.433Z,249.82
2023-04-17T06:14:39.445Z,250.00
2023-04-17T06:15:39.429Z,249.86
2023-04-17T06:16:39.531Z,249.75
2023-04-17T06:17:39.494Z,249.87
2023-04-17T06:18:39.410Z,249.14
2023-04-17T06:19:39.427Z,246.84
2023-04-17T06:20:40.224Z,247.39
2023-04-17T06:21:39.473Z,249.66
2023-04-17T06:22:39.466Z,244.81
2023-04-17T06:23:39.492Z,244.66
2023-04-17T06:24:39.520Z,243.59
2023-04-17T06:25:39.520Z,245.53
2023-04-17T06:26:39.564Z,246.84
2023-04-17T06:27:39.623Z,246.85
2023-04-17T06:28:39.613Z,246.63
2023-04-17T06:29:39.638Z,247.63
2023-04-17T06:30:39.739Z,247.59
2023-04-17T06:31:39.858Z,247.93
2023-04-17T06:32:39.762Z,247.95
2023-04-17T06:33:39.731Z,247.58
2023-04-17T06:34:52.484Z,246.21
2023-04-17T06:35:40.756Z,246.41
2023-04-17T06:36:39.737Z,246.22
2023-04-17T06:37:39.759Z,246.50
2023-04-17T06:38:39.725Z,247.85
2023-04-17T06:39:39.722Z,249.30
2023-04-17T06:40:39.701Z,249.17
2023-04-17T06:41:39.704Z,246.57
2023-04-17T06:42:39.687Z,247.65
2023-04-17T06:43:39.678Z,245.78
2023-04-17T06:44:39.701Z,245.44
2023-04-17T06:45:39.676Z,246.43
2023-04-17T06:46:40.033Z,247.68
2023-04-17T06:47:39.704Z,245.08
2023-04-17T06:48:39.661Z,242.38
2023-04-17T06:49:39.658Z,242.07
2023-04-17T06:50:39.625Z,245.39
2023-04-17T06:51:39.983Z,247.90
2023-04-17T06:52:39.608Z,237.62
2023-04-17T06:53:39.612Z,239.48
2023-04-17T06:54:39.579Z,241.01
2023-04-17T06:55:39.826Z,242.67
2023-04-17T06:56:39.585Z,244.87
2023-04-17T06:57:39.554Z,248.59
2023-04-17T06:58:39.568Z,244.96
2023-04-17T06:59:39.582Z,244.62
2023-04-17T07:00:39.563Z,246.66
2023-04-17T07:01:39.647Z,244.34
2023-04-17T07:02:39.652Z,247.16
2023-04-17T07:03:39.735Z,244.40
2023-04-17T07:04:39.655Z,244.14
2023-04-17T07:05:39.586Z,245.66
2023-04-17T07:06:39.599Z,246.96
2023-04-17T07:07:39.570Z,245.28
2023-04-17T07:08:39.557Z,246.63
2023-04-17T07:09:39.563Z,245.06
2023-04-17T07:10:39.527Z,246.09
2023-04-17T07:11:39.625Z,245.45
2023-04-17T07:12:39.543Z,246.64
2023-04-17T07:13:39.528Z,242.82
2023-04-17T07:14:39.519Z,245.59
2023-04-17T07:15:39.620Z,243.83
2023-04-17T07:16:39.552Z,240.96
2023-04-17T07:17:39.562Z,241.48
2023-04-17T07:18:39.547Z,240.79
2023-04-17T07:19:39.511Z,240.69
2023-04-17T07:20:39.494Z,239.86
2023-04-17T07:21:39.483Z,238.97
2023-04-17T07:22:39.522Z,238.55
2023-04-17T07:23:39.519Z,239.71
2023-04-17T07:24:39.524Z,239.30
2023-04-17T07:25:39.501Z,238.84
2023-04-17T07:26:39.557Z,238.01
2023-04-17T07:27:39.540Z,240.33
2023-04-17T07:28:39.520Z,242.28
2023-04-17T07:29:39.540Z,241.65
2023-04-17T07:30:39.547Z,241.54
2023-04-17T07:31:39.610Z,241.21
2023-04-17T07:32:39.645Z,246.17
2023-04-17T07:33:40.540Z,245.96
2023-04-17T07:34:39.569Z,245.73
2023-04-17T07:35:39.551Z,247.18
2023-04-17T07:36:39.557Z,247.02
2023-04-17T07:37:39.557Z,244.70
2023-04-17T07:38:41.029Z,244.03
2023-04-17T07:39:39.532Z,245.02
2023-04-17T07:40:39.548Z,244.20
2023-04-17T07:41:39.571Z,242.06
2023-04-17T07:42:40.024Z,241.73
2023-04-17T07:43:39.588Z,239.25
2023-04-17T07:44:39.564Z,239.31
2023-04-17T07:45:41.647Z,240.59
2023-04-17T07:46:39.613Z,237.44
2023-04-17T07:47:40.068Z,237.44
2023-04-17T07:48:39.563Z,237.46
2023-04-17T07:49:39.600Z,238.76
2023-04-17T07:50:39.567Z,238.59
2023-04-17T07:51:39.566Z,237.94
2023-04-17T07:52:39.576Z,237.06
2023-04-17T07:53:39.558Z,236.38
2023-04-17T07:54:39.573Z,235.80
2023-04-17T07:55:39.566Z,235.20
2023-04-17T07:56:39.568Z,234.55
2023-04-17T07:57:39.553Z,229.12
2023-04-17T07:58:39.566Z,224.05
2023-04-17T07:59:39.565Z,217.68
2023-04-17T08:00:39.608Z,203.68
2023-04-17T08:01:39.641Z,195.39
2023-04-17T08:02:39.712Z,186.92
2023-04-17T08:03:39.798Z,188.16
2023-04-17T08:04:39.770Z,174.09
2023-04-17T08:05:39.679Z,162.33
2023-04-17T08:06:39.744Z,169.97
2023-04-17T08:07:39.771Z,156.24
2023-04-17T08:08:39.762Z,153.00
2023-04-17T08:09:40.607Z,153.55
2023-04-17T08:10:39.879Z,150.63
2023-04-17T08:11:53.236Z,155.99
2023-04-17T08:12:41.021Z,150.81
2023-04-17T08:13:39.879Z,134.79
2023-04-17T08:14:39.866Z,132.37
2023-04-17T08:15:39.925Z,128.56
2023-04-17T08:16:39.920Z,121.30
2023-04-17T08:17:39.914Z,120.58
2023-04-17T08:18:39.852Z,117.04
2023-04-17T08:19:39.859Z,117.00
2023-04-17T08:20:39.821Z,129.56
2023-04-17T08:21:39.826Z,117.34
2023-04-17T08:22:39.864Z,106.00
2023-04-17T08:23:39.934Z,106.96
2023-04-17T08:24:40.009Z,106.31
2023-04-17T08:25:40.036Z,97.15
2023-04-17T08:26:40.084Z,104.87
2023-04-17T08:27:40.138Z,107.57
2023-04-17T08:28:40.174Z,93.05
2023-04-17T08:29:40.227Z,87.35
2023-04-17T08:30:40.293Z,83.38
2023-04-17T08:31:40.387Z,80.64
2023-04-17T08:32:40.435Z,84.74
2023-04-17T08:33:40.478Z,81.27
2023-04-17T08:34:40.534Z,71.23
2023-04-17T08:35:40.570Z,69.30
2023-04-17T08:36:40.669Z,84.28
2023-04-17T08:37:41.058Z,88.20
2023-04-17T08:38:40.757Z,98.59
2023-04-17T08:39:40.820Z,118.24
2023-04-17T08:40:40.876Z,117.00
2023-04-17T08:41:40.906Z,120.22
2023-04-17T08:42:40.959Z,124.10
2023-04-17T08:43:41.027Z,125.61
2023-04-17T08:44:41.048Z,137.03
2023-04-17T08:45:41.144Z,129.02
2023-04-17T08:46:41.172Z,121.50
2023-04-17T08:47:41.212Z,121.99
2023-04-17T08:48:41.228Z,132.50
2023-04-17T08:49:41.276Z,138.24
2023-04-17T08:50:41.322Z,137.72
2023-04-17T08:51:41.370Z,147.15
2023-04-17T08:52:41.562Z,155.58
2023-04-17T08:53:41.418Z,163.76
2023-04-17T08:54:41.442Z,164.05
2023-04-17T08:55:41.441Z,172.46
2023-04-17T08:56:41.488Z,173.45
2023-04-17T08:57:41.491Z,178.40
2023-04-17T08:58:41.517Z,180.95
2023-04-17T08:59:41.491Z,183.95
2023-04-17T09:00:41.515Z,187.69
2023-04-17T09:01:41.549Z,189.73
2023-04-17T09:02:41.680Z,191.36
2023-04-17T09:03:41.823Z,191.31
2023-04-17T09:04:41.764Z,189.55
2023-04-17T09:05:41.537Z,190.20
2023-04-17T09:06:41.519Z,190.94
2023-04-17T09:07:41.557Z,191.21
2023-04-17T09:08:41.584Z,196.82
2023-04-17T09:09:41.554Z,199.37
2023-04-17T09:10:41.591Z,204.38
2023-04-17T09:11:41.565Z,202.39
2023-04-17T09:12:42.067Z,207.20
2023-04-17T09:13:41.592Z,207.94
2023-04-17T09:14:41.580Z,213.67
2023-04-17T09:15:41.580Z,212.10
2023-04-17T09:16:41.597Z,216.41
2023-04-17T09:17:41.636Z,219.37
2023-04-17T09:18:41.608Z,222.03
2023-04-17T09:19:41.647Z,225.24
2023-04-17T09:20:41.590Z,222.91
2023-04-17T09:21:41.592Z,226.76
2023-04-17T09:22:41.641Z,227.68
2023-04-17T09:23:41.669Z,231.46
2023-04-17T09:24:41.672Z,232.45
2023-04-17T09:25:41.681Z,232.69
2023-04-17T09:26:41.736Z,233.94
2023-04-17T09:27:41.716Z,235.27
2023-04-17T09:28:41.707Z,240.26
2023-04-17T09:29:41.719Z,242.89
2023-04-17T09:30:41.748Z,244.39
2023-04-17T09:31:41.775Z,245.91
2023-04-17T09:32:41.816Z,244.41
2023-04-17T09:33:41.828Z,240.29
2023-04-17T09:34:41.866Z,238.56
2023-04-17T09:35:41.897Z,234.10
2023-04-17T09:36:41.930Z,231.64
2023-04-17T09:37:41.990Z,236.23
2023-04-17T09:38:42.031Z,235.56
2023-04-17T09:39:42.116Z,233.80
2023-04-17T09:40:42.062Z,236.27
2023-04-17T09:41:42.145Z,232.58
2023-04-17T09:42:42.553Z,229.70
2023-04-17T09:43:42.120Z,225.43
2023-04-17T09:44:42.149Z,222.42
2023-04-17T09:45:42.850Z,224.83
2023-04-17T09:46:42.187Z,229.69
2023-04-17T09:47:42.565Z,227.81
2023-04-17T09:48:42.139Z,231.58
2023-04-17T09:49:42.183Z,233.82
2023-04-17T09:50:42.199Z,233.59
2023-04-17T09:51:42.248Z,239.12
2023-04-17T09:52:42.313Z,241.69
2023-04-17T09:53:42.341Z,233.74
2023-04-17T09:54:42.390Z,227.41
2023-04-17T09:55:42.475Z,229.62
2023-04-17T09:56:42.542Z,226.88
2023-04-17T09:57:44.480Z,232.36
2023-04-17T09:58:42.628Z,234.78
2023-04-17T09:59:42.680Z,242.57
2023-04-17T10:00:42.802Z,241.03
2023-04-17T10:01:42.862Z,243.83
2023-04-17T10:02:43.028Z,243.55
2023-04-17T10:03:43.054Z,242.44
2023-04-17T10:04:42.976Z,245.90
2023-04-17T10:05:43.004Z,247.44
2023-04-17T10:06:43.087Z,249.15
2023-04-17T10:07:43.136Z,248.48
2023-04-17T10:08:43.160Z,247.52
2023-04-17T10:09:43.236Z,245.49
2023-04-17T10:10:43.265Z,245.95
2023-04-17T10:11:43.327Z,247.54
2023-04-17T10:12:43.391Z,240.48
2023-04-17T10:13:43.467Z,252.09
2023-04-17T10:14:43.479Z,238.54
2023-04-17T10:15:43.525Z,234.51
2023-04-17T10:16:43.715Z,234.13
2023-04-17T10:17:44.094Z,246.80
2023-04-17T10:18:43.681Z,234.40
2023-04-17T10:19:43.735Z,232.65
2023-04-17T10:20:43.755Z,232.03
2023-04-17T10:21:43.763Z,231.14
2023-04-17T10:22:43.842Z,238.44
2023-04-17T10:23:43.867Z,237.27
2023-04-17T10:24:43.884Z,247.07
2023-04-17T10:25:43.925Z,250.00
2023-04-17T10:26:44.015Z,246.25
2023-04-17T10:27:44.061Z,245.96
2023-04-17T10:28:44.083Z,250.00
2023-04-17T10:29:44.109Z,241.69
2023-04-17T10:30:44.276Z,244.04
2023-04-17T10:31:44.282Z,243.87
2023-04-17T10:32:44.371Z,244.90
2023-04-17T10:33:44.321Z,245.67
2023-04-17T10:34:44.357Z,247.22
2023-04-17T10:35:44.412Z,238.69
2023-04-17T10:36:44.424Z,231.78
2023-04-17T10:37:44.563Z,236.72
2023-04-17T10:38:44.553Z,241.65
2023-04-17T10:39:44.593Z,244.31
2023-04-17T10:40:44.670Z,245.84
2023-04-17T10:41:44.723Z,246.25
2023-04-17T10:42:45.119Z,232.48
2023-04-17T10:43:44.840Z,242.89
2023-04-17T10:44:44.908Z,243.35
2023-04-17T10:45:45.040Z,241.38
2023-04-17T10:46:44.998Z,242.22
2023-04-17T10:47:45.096Z,238.23
2023-04-17T10:48:45.134Z,239.78
2023-04-17T10:49:45.191Z,237.91
2023-04-17T10:50:45.191Z,235.63
2023-04-17T10:51:45.283Z,233.79
2023-04-17T10:52:45.310Z,236.79
2023-04-17T10:53:45.382Z,235.83
2023-04-17T10:54:45.429Z,236.69
2023-04-17T10:55:45.590Z,235.07
2023-04-17T10:56:45.550Z,237.99
2023-04-17T10:57:45.599Z,231.10
2023-04-17T10:58:45.631Z,226.39
2023-04-17T10:59:45.662Z,226.02
2023-04-17T11:00:45.763Z,225.63
2023-04-17T11:01:45.873Z,222.98
2023-04-17T11:02:45.929Z,225.12
2023-04-17T11:03:45.949Z,219.29
2023-04-17T11:04:46.009Z,220.11
2023-04-17T11:05:45.992Z,216.62
2023-04-17T11:06:46.107Z,211.54
2023-04-17T11:07:46.156Z,209.70
2023-04-17T11:08:46.164Z,214.48
2023-04-17T11:09:46.233Z,216.87
2023-04-17T11:10:46.276Z,217.85
2023-04-17T11:11:46.368Z,219.65
2023-04-17T11:12:46.422Z,210.99
2023-04-17T11:13:46.459Z,211.43
2023-04-17T11:14:46.559Z,214.55
2023-04-17T11:15:46.621Z,216.94
2023-04-17T11:16:46.671Z,211.74
2023-04-17T11:17:46.807Z,213.04
2023-04-17T11:18:46.774Z,206.89
2023-04-17T11:19:46.997Z,210.42
2023-04-17T11:20:46.914Z,207.08
2023-04-17T11:21:46.973Z,204.26
2023-04-17T11:22:47.036Z,207.93
2023-04-17T11:23:47.087Z,208.99
2023-04-17T11:24:47.141Z,212.60
2023-04-17T11:25:47.214Z,213.96
2023-04-17T11:26:47.275Z,213.33
2023-04-17T11:27:47.349Z,212.37
2023-04-17T11:28:47.411Z,212.51
2023-04-17T11:29:47.457Z,206.21
2023-04-17T11:30:47.594Z,199.60
2023-04-17T11:31:47.685Z,196.26
2023-04-17T11:32:48.769Z,194.78
2023-04-17T11:33:47.674Z,203.01
2023-04-17T11:34:47.738Z,207.53
2023-04-17T11:35:47.815Z,208.05
2023-04-17T11:36:47.847Z,206.17
2023-04-17T11:37:48.110Z,204.43
2023-04-17T11:38:47.915Z,203.76
2023-04-17T11:39:47.977Z,203.68
2023-04-17T11:40:48.009Z,203.33
2023-04-17T11:41:48.062Z,207.55
2023-04-17T11:42:48.086Z,203.62
2023-04-17T11:43:48.143Z,199.51
2023-04-17T11:44:48.133Z,188.25
2023-04-17T11:45:48.217Z,183.69
2023-04-17T11:46:48.226Z,177.01
2023-04-17T11:47:48.623Z,174.28
2023-04-17T11:48:48.173Z,158.59
2023-04-17T11:49:48.172Z,170.36
2023-04-17T11:50:48.192Z,183.30
2023-04-17T11:51:48.195Z,182.03
2023-04-17T11:52:48.239Z,185.00
2023-04-17T11:53:48.211Z,186.15
2023-04-17T11:54:48.212Z,181.33
2023-04-17T11:55:48.225Z,187.37
2023-04-17T11:56:48.225Z,184.52
2023-04-17T11:57:48.234Z,163.88
2023-04-17T11:58:48.244Z,175.48
2023-04-17T11:59:48.252Z,187.53
2023-04-17T12:00:48.272Z,188.67
2023-04-17T12:01:48.268Z,176.86
2023-04-17T12:03:48.393Z,193.49
2023-04-17T12:04:48.418Z,195.88
2023-04-17T12:05:48.355Z,177.56
2023-04-17T12:06:48.307Z,161.72
2023-04-17T12:07:48.329Z,177.93
2023-04-17T12:08:48.356Z,183.05
2023-04-17T12:09:48.336Z,174.30
2023-04-17T12:10:48.342Z,177.84
2023-04-17T12:11:48.315Z,200.36
2023-04-17T12:12:48.322Z,198.58
2023-04-17T12:13:48.333Z,210.53
2023-04-17T12:14:48.350Z,206.53
2023-04-17T12:15:48.391Z,213.88
2023-04-17T12:16:48.407Z,200.10
2023-04-17T12:17:48.408Z,194.06
2023-04-17T12:18:48.367Z,197.64
2023-04-17T12:19:48.382Z,203.22
2023-04-17T12:20:48.403Z,178.73
2023-04-17T12:21:48.396Z,154.54
2023-04-17T12:22:48.388Z,182.82
2023-04-17T12:23:48.386Z,189.14
2023-04-17T12:24:48.391Z,170.71
2023-04-17T12:25:48.356Z,147.38
2023-04-17T12:26:48.368Z,140.38
2023-04-17T12:27:49.443Z,152.95
2023-04-17T12:28:48.380Z,157.95
2023-04-17T12:29:48.388Z,152.03
2023-04-17T12:30:48.398Z,155.31
2023-04-17T12:31:48.523Z,158.71
2023-04-17T12:32:48.492Z,153.99
2023-04-17T12:33:48.459Z,145.58
2023-04-17T12:34:48.477Z,139.98
2023-04-17T12:35:48.540Z,142.80
2023-04-17T12:36:48.475Z,135.04
2023-04-17T12:37:48.489Z,126.81
2023-04-17T12:38:48.513Z,141.20
2023-04-17T12:39:48.513Z,122.86